Time;durP1;ratioP1;P1;durP2;ratioP2;P2;SDS_P1;SDS_P2;PMS_P1;PMS_P2;Temp;Humidity;BMP_temperature;BMP_pressure;BME280_temperature;BME280_humidity;BME280_pressure;Samples;Min_cycle;Max_cycle;Signal;HPM_P1;HPM_P2
2021/12/29 00:00:25;;;;;;;0.30;0.20;;;;;;;10.61;100.00;98768.31;5032097;28;20485;-52
2021/12/29 00:02:53;;;;;;;0.30;0.20;;;;;;;10.59;100.00;98770.19;5022392;28;20476;-52
2021/12/29 00:05:22;;;;;;;0.30;0.20;;;;;;;10.58;100.00;98770.28;5031972;28;20934;-52
2021/12/29 00:07:49;;;;;;;0.30;0.20;;;;;;;10.51;100.00;98776.84;5032116;28;20422;-51
2021/12/29 00:10:18;;;;;;;0.30;0.20;;;;;;;10.48;100.00;98787.63;5031814;28;20448;-52
2021/12/29 00:12:49;;;;;;;0.30;0.20;;;;;;;10.50;100.00;98789.25;5023153;28;20926;-52
2021/12/29 00:15:17;;;;;;;0.30;0.20;;;;;;;10.52;100.00;98802.47;5031824;28;20949;-52
2021/12/29 00:17:45;;;;;;;0.30;0.20;;;;;;;10.54;100.00;98795.28;5027686;28;20494;-51
2021/12/29 00:20:18;;;;;;;0.30;0.20;;;;;;;10.53;100.00;98789.09;5031856;28;20451;-52
2021/12/29 00:22:45;;;;;;;0.30;0.20;;;;;;;10.56;100.00;98782.78;5031930;28;20494;-52
2021/12/29 00:25:13;;;;;;;0.30;0.20;;;;;;;10.58;100.00;98787.09;5029789;28;20837;-52
2021/12/29 00:27:40;;;;;;;0.30;0.20;;;;;;;10.56;100.00;98790.75;5032087;28;20422;-52
2021/12/29 00:30:10;;;;;;;0.30;0.20;;;;;;;10.58;100.00;98799.50;5027782;28;20885;-52
2021/12/29 00:32:36;;;;;;;0.30;0.20;;;;;;;10.64;100.00;98799.16;5027506;28;20499;-52
2021/12/29 00:35:05;;;;;;;0.30;0.20;;;;;;;10.66;100.00;98807.91;5035580;28;20505;-52
2021/12/29 00:37:32;;;;;;;0.30;0.20;;;;;;;10.68;100.00;98809.53;5035600;28;20454;-52
2021/12/29 00:39:58;;;;;;;0.30;0.20;;;;;;;10.64;100.00;98812.47;5035405;28;20859;-52
2021/12/29 00:42:25;;;;;;;0.30;0.20;;;;;;;10.64;100.00;98813.31;5028599;28;20450;-53
2021/12/29 00:44:52;;;;;;;0.30;0.20;;;;;;;10.72;100.00;98820.03;5032248;28;20509;-52
2021/12/29 00:47:18;;;;;;;0.30;0.20;;;;;;;10.62;100.00;98827.63;5035104;28;20516;-52
2021/12/29 00:49:46;;;;;;;0.30;0.20;;;;;;;10.73;100.00;98843.00;5035186;28;20448;-52
2021/12/29 00:52:14;;;;;;;0.30;0.20;;;;;;;10.73;100.00;98848.31;5026444;28;20455;-52
2021/12/29 00:54:42;;;;;;;0.30;0.20;;;;;;;10.74;100.00;98856.22;5025044;28;21003;-52
2021/12/29 00:57:10;;;;;;;0.30;0.20;;;;;;;10.75;100.00;98860.59;5011232;28;20443;-52
2021/12/29 00:59:36;;;;;;;0.30;0.20;;;;;;;10.72;100.00;98859.91;5030481;28;20431;-51
2021/12/29 01:02:04;;;;;;;0.30;0.20;;;;;;;10.70;100.00;98875.94;5024246;28;20515;-51
2021/12/29 01:04:31;;;;;;;0.30;0.20;;;;;;;10.74;100.00;98879.28;5035317;28;20826;-52
2021/12/29 01:06:58;;;;;;;0.30;0.20;;;;;;;10.77;100.00;98884.44;5035120;28;20461;-52
2021/12/29 01:09:24;;;;;;;0.30;0.20;;;;;;;10.77;100.00;98884.44;5035065;28;20950;-52
2021/12/29 01:11:55;;;;;;;0.30;0.20;;;;;;;10.76;100.00;98886.22;5034228;28;20541;-52
2021/12/29 01:14:23;;;;;;;0.30;0.20;;;;;;;10.78;100.00;98902.09;5035094;28;20501;-52
2021/12/29 01:16:51;;;;;;;0.30;0.20;;;;;;;10.74;100.00;98914.69;5031052;28;20502;-52
2021/12/29 01:19:21;;;;;;;0.30;0.20;;;;;;;10.73;100.00;98917.44;5035080;28;20448;-52
2021/12/29 01:21:52;;;;;;;0.30;0.20;;;;;;;10.70;100.00;98934.41;5034210;28;20449;-52
2021/12/29 01:24:26;;;;;;;0.30;0.20;;;;;;;10.78;100.00;98934.00;5035121;28;20451;-52
2021/12/29 01:26:54;;;;;;;0.30;0.20;;;;;;;10.73;100.00;98954.63;5030398;28;20461;-52
2021/12/29 01:29:22;;;;;;;0.30;0.20;;;;;;;10.75;100.00;98958.94;5034540;28;20915;-52
2021/12/29 01:31:49;;;;;;;0.30;0.20;;;;;;;10.76;100.00;98970.41;5034684;28;20471;-51
2021/12/29 01:34:15;;;;;;;0.30;0.20;;;;;;;10.67;100.00;98966.41;5034617;28;20953;-52
2021/12/29 01:36:42;;;;;;;0.30;0.20;;;;;;;10.72;100.00;98974.19;5033949;28;20469;-52
2021/12/29 01:39:13;;;;;;;0.30;0.20;;;;;;;10.65;100.00;98978.94;5031806;28;20480;-52
2021/12/29 01:41:41;;;;;;;0.30;0.20;;;;;;;10.67;100.00;98980.56;5007381;28;20451;-52
2021/12/29 01:44:10;;;;;;;0.30;0.20;;;;;;;10.66;100.00;98970.88;5033664;28;20452;-52
2021/12/29 01:46:38;;;;;;;0.30;0.20;;;;;;;10.66;100.00;98984.16;5034494;28;20545;-52
2021/12/29 01:49:06;;;;;;;0.30;0.20;;;;;;;10.65;100.00;98981.59;5034320;28;20426;-52
2021/12/29 01:51:34;;;;;;;0.30;0.20;;;;;;;10.64;100.00;98995.81;5033684;28;20451;-52
2021/12/29 01:54:14;;;;;;;0.30;0.20;;;;;;;10.65;100.00;99003.69;5029689;28;20950;-52
2021/12/29 01:56:45;;;;;;;0.30;0.20;;;;;;;10.67;100.00;99004.47;5023647;28;20447;-52
2021/12/29 01:59:14;;;;;;;0.30;0.20;;;;;;;10.64;100.00;99011.75;5034255;28;20444;-52
2021/12/29 02:01:42;;;;;;;0.30;0.20;;;;;;;10.60;100.00;99015.50;5025606;28;20472;-52
2021/12/29 02:04:09;;;;;;;0.30;0.20;;;;;;;10.63;100.00;99018.88;5030638;28;20456;-51
2021/12/29 02:06:36;;;;;;;0.30;0.20;;;;;;;10.63;100.00;99033.94;5034008;28;20458;-52
2021/12/29 02:09:05;;;;;;;0.30;0.20;;;;;;;10.65;100.00;99038.25;5029372;28;20485;-52
2021/12/29 02:11:37;;;;;;;0.30;0.20;;;;;;;10.74;100.00;99036.09;5025059;28;20825;-52
2021/12/29 02:14:06;;;;;;;0.30;0.20;;;;;;;10.84;100.00;99042.69;5033963;28;20418;-52
2021/12/29 02:16:34;;;;;;;0.30;0.20;;;;;;;10.72;100.00;99038.81;5016349;28;20444;-52
2021/12/29 02:19:04;;;;;;;0.30;0.20;;;;;;;10.76;100.00;99042.19;5033173;28;20456;-52
2021/12/29 02:21:32;;;;;;;0.30;0.20;;;;;;;10.73;100.00;99048.50;5028105;28;20452;-52
2021/12/29 02:26:39;;;;;;;0.30;0.20;;;;;;;10.76;100.00;99066.09;5030728;28;20487;-52
2021/12/29 02:29:09;;;;;;;0.30;0.20;;;;;;;10.65;100.00;99075.44;5033743;28;20422;-52
2021/12/29 02:31:38;;;;;;;0.30;0.20;;;;;;;10.64;100.00;99081.69;5030280;28;20455;-52
2021/12/29 02:34:08;;;;;;;0.30;0.20;;;;;;;10.72;100.00;99078.69;5030755;28;20535;-52
2021/12/29 02:36:35;;;;;;;0.30;0.20;;;;;;;10.76;100.00;99084.72;5033585;28;20454;-52
2021/12/29 02:39:04;;;;;;;0.30;0.20;;;;;;;10.69;100.00;99089.47;5032937;28;20838;-52
2021/12/29 02:41:31;;;;;;;0.30;0.20;;;;;;;10.70;100.00;99103.63;5033271;28;20535;-52
2021/12/29 02:44:00;;;;;;;0.30;0.20;;;;;;;10.65;100.00;99112.66;5033377;28;20871;-52
2021/12/29 02:46:29;;;;;;;0.30;0.20;;;;;;;10.66;100.00;99130.31;5032482;28;20516;-52
2021/12/29 02:49:02;;;;;;;0.30;0.20;;;;;;;10.58;100.00;99123.66;5033419;28;20502;-52
2021/12/29 02:51:31;;;;;;;0.30;0.20;;;;;;;10.60;100.00;99124.44;5007150;28;20797;-52
2021/12/29 02:53:59;;;;;;;0.30;0.20;;;;;;;10.51;100.00;99114.25;5028944;28;20514;-52
2021/12/29 02:56:27;;;;;;;0.30;0.20;;;;;;;10.55;100.00;99111.41;5020156;28;20474;-52
2021/12/29 02:58:55;;;;;;;0.30;0.20;;;;;;;10.48;100.00;99109.09;5028275;28;20525;-52
2021/12/29 03:01:22;;;;;;;0.30;0.20;;;;;;;10.48;100.00;99135.66;5027941;28;20453;-52
2021/12/29 03:03:49;;;;;;;0.30;0.20;;;;;;;10.45;100.00;99135.81;5028004;28;20459;-52
2021/12/29 03:06:16;;;;;;;0.30;0.20;;;;;;;10.48;100.00;99148.94;5032379;28;20484;-52
2021/12/29 03:08:43;;;;;;;0.30;0.20;;;;;;;10.45;100.00;99141.97;5032667;28;20502;-52
2021/12/29 03:11:10;;;;;;;0.30;0.20;;;;;;;10.46;100.00;99138.38;5032266;28;20941;-52
2021/12/29 03:13:39;;;;;;;0.30;0.20;;;;;;;10.49;100.00;99145.34;5014863;28;20549;-52
2021/12/29 03:16:07;;;;;;;0.30;0.20;;;;;;;10.53;100.00;99133.63;5032654;28;20452;-52
2021/12/29 03:18:35;;;;;;;0.30;0.20;;;;;;;10.56;100.00;99150.31;5032646;28;20426;-52
2021/12/29 03:21:02;;;;;;;0.30;0.20;;;;;;;10.71;100.00;99154.03;5030390;28;20486;-52
2021/12/29 03:23:30;;;;;;;0.30;0.20;;;;;;;10.70;100.00;99162.09;5032460;28;20537;-52
2021/12/29 03:25:57;;;;;;;0.30;0.20;;;;;;;10.68;100.00;99149.72;5015512;28;20868;-52
2021/12/29 03:28:25;;;;;;;0.30;0.20;;;;;;;10.70;100.00;99149.66;5032465;28;20561;-52
2021/12/29 03:30:54;;;;;;;0.30;0.20;;;;;;;10.63;100.00;99153.53;5022566;28;20452;-52
2021/12/29 03:33:23;;;;;;;0.30;0.20;;;;;;;10.64;100.00;99152.59;5029864;28;20471;-52
2021/12/29 03:35:56;;;;;;;0.30;0.20;;;;;;;10.60;100.00;99157.19;5031743;28;20981;-52
2021/12/29 03:38:25;;;;;;;0.30;0.20;;;;;;;10.57;100.00;99159.16;5031537;28;20974;-52
2021/12/29 03:40:53;;;;;;;0.30;0.20;;;;;;;10.57;100.00;99180.41;5032600;28;20494;-52
2021/12/29 03:43:20;;;;;;;0.30;0.20;;;;;;;10.57;100.00;99183.06;5021878;28;20479;-52
2021/12/29 03:45:50;;;;;;;0.30;0.20;;;;;;;10.53;100.00;99190.28;5032458;28;20451;-52
2021/12/29 03:48:18;;;;;;;0.30;0.20;;;;;;;10.58;100.00;99200.72;5016088;28;20486;-52
2021/12/29 03:50:46;;;;;;;0.30;0.20;;;;;;;10.59;100.00;99205.97;5031535;28;20452;-53
2021/12/29 03:53:14;;;;;;;0.30;0.20;;;;;;;10.58;100.00;99198.06;5031995;28;20493;-52
2021/12/29 03:55:45;;;;;;;0.30;0.20;;;;;;;10.62;100.00;99203.16;5015328;28;20957;-52
2021/12/29 03:58:12;;;;;;;0.30;0.20;;;;;;;10.59;100.00;99205.97;5032189;28;20450;-52
2021/12/29 04:00:39;;;;;;;0.30;0.20;;;;;;;10.58;100.00;99214.00;5032054;28;20423;-52
2021/12/29 04:03:05;;;;;;;0.30;0.20;;;;;;;10.60;100.00;99214.81;5030385;28;20471;-52
2021/12/29 04:05:33;;;;;;;0.30;0.20;;;;;;;10.60;100.00;99218.31;5031725;28;20949;-52
2021/12/29 04:07:59;;;;;;;0.30;0.20;;;;;;;10.66;100.00;99207.38;5036340;28;20474;-52
2021/12/29 04:10:26;;;;;;;0.30;0.20;;;;;;;10.62;100.00;99212.94;5036174;28;20425;-52
2021/12/29 04:12:52;;;;;;;0.30;0.20;;;;;;;10.62;100.00;99229.72;5036037;28;20447;-52
2021/12/29 04:15:19;;;;;;;0.30;0.20;;;;;;;10.60;100.00;99225.44;5035414;28;20494;-52
2021/12/29 04:17:48;;;;;;;0.30;0.20;;;;;;;10.55;100.00;99235.38;5035363;28;20940;-52
2021/12/29 04:23:07;;;;;;;0.30;0.20;;;;;;;10.56;100.00;99232.69;5036089;28;20442;-52
2021/12/29 04:25:36;;;;;;;0.30;0.20;;;;;;;10.50;100.00;99237.41;5012796;28;20853;-52
2021/12/29 04:28:08;;;;;;;0.30;0.20;;;;;;;10.42;100.00;99240.41;5035675;28;20487;-52
2021/12/29 04:30:35;;;;;;;0.30;0.20;;;;;;;10.48;100.00;99247.25;5027118;28;20436;-52
2021/12/29 04:33:03;;;;;;;0.30;0.20;;;;;;;10.39;100.00;99246.72;5031022;28;20482;-52
2021/12/29 04:35:29;;;;;;;0.30;0.20;;;;;;;10.45;100.00;99253.56;5032371;28;20987;-52
2021/12/29 04:37:56;;;;;;;0.30;0.20;;;;;;;10.26;100.00;99258.81;5035713;28;20422;-52
2021/12/29 04:40:23;;;;;;;0.30;0.20;;;;;;;10.24;100.00;99262.47;5035764;28;20455;-52
2021/12/29 04:42:50;;;;;;;0.30;0.20;;;;;;;10.20;100.00;99253.75;5034794;28;20468;-52
2021/12/29 04:45:17;;;;;;;0.30;0.20;;;;;;;10.22;100.00;99262.53;5035334;28;20500;-52
2021/12/29 04:47:47;;;;;;;0.30;0.20;;;;;;;10.14;100.00;99263.75;5035572;28;20561;-52
2021/12/29 04:50:36;;;;;;;0.30;0.20;;;;;;;10.12;100.00;99274.44;5034988;28;20427;-52
2021/12/29 04:53:04;;;;;;;0.30;0.20;;;;;;;10.10;100.00;99278.97;5035380;28;20447;-52
2021/12/29 04:55:31;;;;;;;0.30;0.20;;;;;;;10.11;100.00;99278.03;5018665;28;20443;-52
2021/12/29 04:57:59;;;;;;;0.30;0.20;;;;;;;10.13;100.00;99284.13;5022509;28;20452;-52
2021/12/29 05:00:29;;;;;;;0.30;0.20;;;;;;;10.05;100.00;99295.09;5035100;28;20996;-52
2021/12/29 05:02:58;;;;;;;0.30;0.20;;;;;;;10.07;100.00;99303.84;5024604;28;20525;-52
2021/12/29 05:10:46;;;;;;;0.30;0.20;;;;;;;10.08;100.00;99310.03;5034542;28;20883;-52
2021/12/29 05:13:14;;;;;;;0.30;0.20;;;;;;;10.04;100.00;99306.66;5035213;28;20490;-52
2021/12/29 05:15:41;;;;;;;0.30;0.20;;;;;;;10.14;100.00;99301.78;5035013;28;20426;-52
2021/12/29 05:18:08;;;;;;;0.30;0.20;;;;;;;10.07;100.00;99308.31;5034691;28;20422;-52
2021/12/29 05:20:34;;;;;;;0.30;0.20;;;;;;;10.15;100.00;99313.31;5033969;28;20452;-52
2021/12/29 05:23:01;;;;;;;0.30;0.20;;;;;;;10.12;100.00;99321.38;5033139;28;20454;-52
2021/12/29 05:25:28;;;;;;;0.30;0.20;;;;;;;10.03;100.00;99315.53;5028315;28;20462;-52
2021/12/29 05:27:55;;;;;;;0.30;0.20;;;;;;;10.05;100.00;99331.41;5034827;28;20495;-52
2021/12/29 05:30:25;;;;;;;0.30;0.20;;;;;;;10.04;100.00;99335.84;5008759;28;20907;-52
2021/12/29 05:32:51;;;;;;;0.97;0.97;;;;;;;10.13;100.00;99331.94;5034892;28;20529;-52
2021/12/29 05:35:18;;;;;;;0.30;0.20;;;;;;;10.14;100.00;99327.47;5035484;28;20513;-51
2021/12/29 05:37:45;;;;;;;0.30;0.20;;;;;;;10.19;100.00;99328.16;5034879;28;20459;-52
2021/12/29 05:40:14;;;;;;;0.30;0.20;;;;;;;10.19;100.00;99329.03;5035494;28;20475;-52
2021/12/29 05:42:42;;;;;;;0.40;0.30;;;;;;;10.21;100.00;99326.31;5035058;28;20503;-52
2021/12/29 05:45:12;;;;;;;0.30;0.20;;;;;;;10.19;100.00;99331.69;5035448;28;20513;-52
2021/12/29 05:47:39;;;;;;;0.30;0.20;;;;;;;10.19;100.00;99323.72;5034870;28;20491;-53
2021/12/29 05:50:09;;;;;;;0.30;0.20;;;;;;;10.17;100.00;99332.69;5034872;28;20451;-52
2021/12/29 05:52:36;;;;;;;0.30;0.20;;;;;;;10.23;100.00;99332.44;5035332;28;20453;-52
2021/12/29 05:55:04;;;;;;;0.30;0.20;;;;;;;10.20;100.00;99332.53;5022247;28;20861;-52
2021/12/29 05:57:30;;;;;;;0.30;0.20;;;;;;;10.21;100.00;99332.50;5030380;28;20983;-52
2021/12/29 05:59:57;;;;;;;0.30;0.20;;;;;;;10.21;100.00;99332.50;5035097;28;20452;-52
2021/12/29 06:02:24;;;;;;;0.30;0.20;;;;;;;10.21;100.00;99326.31;5022621;28;20563;-52
2021/12/29 06:04:50;;;;;;;0.30;0.20;;;;;;;10.23;100.00;99333.31;5033894;28;20544;-52
2021/12/29 06:07:17;;;;;;;0.30;0.20;;;;;;;10.26;100.00;99342.94;5034082;28;20516;-52
2021/12/29 06:09:44;;;;;;;0.30;0.20;;;;;;;10.24;100.00;99334.16;5033367;28;20459;-52
2021/12/29 06:12:10;;;;;;;0.30;0.20;;;;;;;10.22;100.00;99344.00;5020555;28;20588;-52
2021/12/29 06:14:37;;;;;;;0.30;0.20;;;;;;;10.18;100.00;99350.34;5032622;28;20451;-52
2021/12/29 06:17:04;;;;;;;0.30;0.20;;;;;;;10.20;100.00;99362.63;5017371;28;20449;-52
2021/12/29 06:19:32;;;;;;;0.30;0.20;;;;;;;10.23;100.00;99364.31;5033946;28;20430;-52
2021/12/29 06:21:58;;;;;;;0.30;0.20;;;;;;;10.26;100.00;99366.84;5033593;28;20442;-52
2021/12/29 06:24:25;;;;;;;0.30;0.20;;;;;;;10.19;100.00;99374.19;5033310;28;20907;-53
2021/12/29 06:26:51;;;;;;;0.30;0.20;;;;;;;10.22;100.00;99376.72;5030536;28;20477;-52
2021/12/29 06:29:18;;;;;;;0.30;0.20;;;;;;;10.21;100.00;99375.00;5032318;28;20460;-52
2021/12/29 06:31:47;;;;;;;0.30;0.20;;;;;;;10.18;100.00;99376.91;5033016;28;20503;-52
2021/12/29 06:34:14;;;;;;;0.30;0.20;;;;;;;10.26;100.00;99386.28;5033758;28;20447;-52
2021/12/29 06:36:40;;;;;;;0.30;0.20;;;;;;;10.30;100.00;99393.22;5033516;28;20505;-52
2021/12/29 06:39:07;;;;;;;0.40;0.30;;;;;;;10.29;100.00;99398.59;5022805;28;20445;-51
2021/12/29 06:41:34;;;;;;;0.30;0.20;;;;;;;10.31;100.00;99394.94;5030714;28;20448;-52
2021/12/29 06:44:02;;;;;;;0.30;0.20;;;;;;;10.30;100.00;99403.84;5021827;28;20522;-52
2021/12/29 06:46:28;;;;;;;0.30;0.20;;;;;;;10.36;100.00;99410.69;5026702;28;20429;-52
2021/12/29 06:48:55;;;;;;;0.30;0.20;;;;;;;10.34;100.00;99410.75;5033188;28;20494;-52
2021/12/29 06:51:22;;;;;;;0.30;0.20;;;;;;;10.44;100.00;99410.38;5032982;28;20506;-52
2021/12/29 06:53:49;;;;;;;0.30;0.20;;;;;;;10.37;100.00;99417.72;5020936;28;20464;-51
2021/12/29 06:56:18;;;;;;;0.30;0.20;;;;;;;10.41;100.00;99415.78;5014679;28;20504;-52
2021/12/29 06:58:45;;;;;;;0.30;0.20;;;;;;;10.32;100.00;99427.69;5020479;28;20880;-52
2021/12/29 07:01:13;;;;;;;0.30;0.20;;;;;;;10.27;100.00;99427.84;5029194;28;20452;-53
2021/12/29 07:03:40;;;;;;;0.30;0.20;;;;;;;10.21;100.00;99429.88;5026048;28;20494;-52
2021/12/29 07:06:07;;;;;;;0.30;0.20;;;;;;;10.26;100.00;99431.44;5025711;28;20452;-53
2021/12/29 07:08:33;;;;;;;0.30;0.20;;;;;;;10.31;100.00;99434.78;5013649;28;20980;-53
2021/12/29 07:11:01;;;;;;;0.30;0.20;;;;;;;10.15;100.00;99432.81;5023933;28;20477;-52
2021/12/29 07:13:27;;;;;;;0.30;0.20;;;;;;;10.36;100.00;99438.09;5026485;28;20487;-52
2021/12/29 07:15:54;;;;;;;0.30;0.20;;;;;;;10.33;100.00;99448.00;5030942;28;20426;-52
2021/12/29 07:18:21;;;;;;;0.30;0.20;;;;;;;10.53;100.00;99445.38;5020628;28;20449;-53
2021/12/29 07:20:47;;;;;;;0.30;0.20;;;;;;;10.54;100.00;99452.41;5015494;28;20448;-52
2021/12/29 07:23:14;;;;;;;0.50;0.50;;;;;;;10.57;100.00;99454.97;5013019;28;20478;-52
2021/12/29 07:25:41;;;;;;;0.30;0.20;;;;;;;10.47;100.00;99458.91;5016623;28;20485;-53
2021/12/29 07:28:07;;;;;;;0.30;0.20;;;;;;;10.94;100.00;99459.53;5017810;28;20980;-53
2021/12/29 07:30:34;;;;;;;0.30;0.20;;;;;;;10.56;100.00;99455.91;5020698;28;20525;-52
2021/12/29 07:33:00;;;;;;;0.30;0.20;;;;;;;10.50;100.00;99457.94;5028213;28;21121;-52
2021/12/29 07:35:27;;;;;;;0.30;0.20;;;;;;;10.73;100.00;99456.97;5032509;28;20456;-52
2021/12/29 07:37:54;;;;;;;0.30;0.20;;;;;;;10.57;100.00;99464.72;5025136;28;20423;-53
2021/12/29 07:40:20;;;;;;;0.30;0.20;;;;;;;10.47;100.00;99471.34;5012870;28;20435;-52
2021/12/29 07:42:48;;;;;;;0.30;0.20;;;;;;;10.44;100.00;99479.44;5015457;28;20554;-52
2021/12/29 07:45:15;;;;;;;0.30;0.20;;;;;;;10.67;100.00;99484.66;5022035;28;20514;-52
2021/12/29 07:47:47;;;;;;;0.30;0.20;;;;;;;10.52;100.00;99482.63;5002304;28;20488;-52
2021/12/29 07:50:15;;;;;;;0.30;0.20;;;;;;;10.62;100.00;99499.94;5021445;28;20419;-52
2021/12/29 07:52:56;;;;;;;0.30;0.20;;;;;;;10.56;100.00;99508.19;5018994;28;20468;-52
2021/12/29 07:55:22;;;;;;;0.30;0.20;;;;;;;10.52;100.00;99498.56;5018864;28;20442;-52
2021/12/29 07:57:49;;;;;;;0.30;0.20;;;;;;;10.52;100.00;99498.56;5026209;28;20440;-52
2021/12/29 08:00:16;;;;;;;0.30;0.20;;;;;;;10.59;100.00;99494.75;5016610;28;20499;-52
2021/12/29 08:02:44;;;;;;;0.30;0.20;;;;;;;10.71;100.00;99502.22;5025105;28;20459;-52
2021/12/29 08:05:12;;;;;;;0.53;0.53;;;;;;;10.67;100.00;99500.59;5031966;28;20502;-52
2021/12/29 08:07:46;;;;;;;0.30;0.20;;;;;;;10.83;100.00;99492.88;5005699;28;20462;-52
2021/12/29 08:10:13;;;;;;;0.30;0.20;;;;;;;10.55;100.00;99498.44;5032250;28;20459;-53
2021/12/29 08:12:40;;;;;;;0.30;0.20;;;;;;;10.59;100.00;99489.44;5031876;28;20872;-52
2021/12/29 08:15:08;;;;;;;0.30;0.20;;;;;;;10.77;100.00;99493.97;5032063;28;20494;-53
2021/12/29 08:17:34;;;;;;;0.30;0.20;;;;;;;10.57;100.00;99497.47;5031958;28;20506;-52
2021/12/29 08:20:04;;;;;;;0.30;0.20;;;;;;;10.64;100.00;99506.03;5032051;28;20456;-52
2021/12/29 08:22:31;;;;;;;0.30;0.20;;;;;;;10.61;100.00;99503.53;5019677;28;21147;-53
2021/12/29 08:24:57;;;;;;;0.30;0.20;;;;;;;10.91;100.00;99504.03;5020044;28;20982;-53
2021/12/29 08:27:24;;;;;;;0.30;0.20;;;;;;;10.71;100.00;99504.88;5019025;28;20414;-52
2021/12/29 08:29:51;;;;;;;0.30;0.20;;;;;;;10.91;100.00;99502.22;5023630;28;20475;-52
2021/12/29 08:32:20;;;;;;;0.30;0.20;;;;;;;10.86;100.00;99501.56;5020020;28;20990;-52
2021/12/29 08:34:47;;;;;;;0.30;0.20;;;;;;;10.66;100.00;99504.19;5020842;28;20508;-50
2021/12/29 08:37:16;;;;;;;0.30;0.20;;;;;;;10.53;100.00;99495.84;5023447;28;20465;-50
2021/12/29 08:39:43;;;;;;;0.30;0.20;;;;;;;10.64;100.00;99506.03;5022356;28;20437;-50
2021/12/29 08:42:11;;;;;;;0.30;0.20;;;;;;;10.49;100.00;99509.34;5022351;28;20518;-50
2021/12/29 08:44:42;;;;;;;0.30;0.20;;;;;;;10.66;100.00;99525.44;5020875;28;20415;-50
2021/12/29 08:47:09;;;;;;;0.30;0.20;;;;;;;10.68;100.00;99526.25;5020466;28;20438;-49
2021/12/29 08:49:35;;;;;;;0.30;0.20;;;;;;;10.78;100.00;99535.56;5021517;28;20566;-51
2021/12/29 08:52:03;;;;;;;0.30;0.20;;;;;;;10.88;100.00;99550.22;5023611;28;20505;-50
2021/12/29 08:54:29;;;;;;;0.30;0.20;;;;;;;10.71;100.00;99557.19;5025567;28;20439;-50
2021/12/29 08:56:56;;;;;;;0.30;0.20;;;;;;;11.03;100.00;99550.50;5008110;28;20941;-50
2021/12/29 08:59:23;;;;;;;0.30;0.20;;;;;;;11.04;100.00;99552.25;5023990;28;20440;-50
2021/12/29 09:01:50;;;;;;;0.30;0.20;;;;;;;10.91;100.00;99555.41;5025917;28;20813;-50
2021/12/29 09:04:17;;;;;;;0.30;0.20;;;;;;;11.08;100.00;99556.50;5026672;28;21281;-50
2021/12/29 09:06:44;;;;;;;0.30;0.20;;;;;;;10.94;100.00;99559.72;5023180;28;20807;-50
2021/12/29 09:09:10;;;;;;;0.30;0.20;;;;;;;10.95;100.00;99564.13;5025373;28;20484;-50
2021/12/29 09:11:37;;;;;;;0.30;0.20;;;;;;;11.12;100.00;99561.63;5024914;28;20423;-50
2021/12/29 09:14:04;;;;;;;0.30;0.20;;;;;;;11.09;100.00;99559.06;5025928;28;20453;-50
2021/12/29 09:16:32;;;;;;;0.30;0.20;;;;;;;11.07;100.00;99550.31;5024772;28;21010;-49
2021/12/29 09:18:58;;;;;;;0.30;0.20;;;;;;;11.28;100.00;99546.72;5025645;28;20445;-50
2021/12/29 09:21:27;;;;;;;0.30;0.20;;;;;;;11.13;100.00;99549.19;5021827;28;20436;-51
2021/12/29 09:23:53;;;;;;;0.30;0.20;;;;;;;11.23;100.00;99559.34;5025646;28;20453;-50
2021/12/29 09:26:20;;;;;;;0.30;0.20;;;;;;;11.29;100.00;99566.22;5021795;28;20480;-51
2021/12/29 09:28:48;;;;;;;0.30;0.20;;;;;;;11.20;100.00;99569.28;5027029;28;20565;-50
2021/12/29 09:31:20;;;;;;;0.30;0.20;;;;;;;11.18;100.00;99571.13;5030863;28;20840;-51
2021/12/29 09:33:47;;;;;;;0.30;0.20;;;;;;;11.11;100.00;99575.88;5020445;28;20502;-50
2021/12/29 09:36:15;;;;;;;0.30;0.20;;;;;;;11.09;100.00;99582.16;5026068;28;21002;-50
2021/12/29 09:38:42;;;;;;;0.30;0.20;;;;;;;11.02;100.00;99578.91;5019752;28;20881;-50
2021/12/29 09:41:13;;;;;;;0.33;0.30;;;;;;;11.09;100.00;99580.34;5024240;28;20465;-49
2021/12/29 09:43:41;;;;;;;0.30;0.20;;;;;;;11.05;100.00;99564.59;5026182;28;20464;-50
2021/12/29 09:46:08;;;;;;;0.30;0.20;;;;;;;10.91;100.00;99562.53;5031834;28;20483;-49
2021/12/29 09:48:36;;;;;;;0.30;0.20;;;;;;;10.98;100.00;99556.91;5024184;28;20491;-50
2021/12/29 09:51:06;;;;;;;0.30;0.20;;;;;;;10.90;100.00;99551.03;5032364;28;20542;-50
2021/12/29 09:53:35;;;;;;;0.30;0.20;;;;;;;11.01;100.00;99566.53;5024209;28;20471;-49
2021/12/29 09:56:07;;;;;;;0.30;0.20;;;;;;;10.91;100.00;99579.34;5019055;28;20498;-49
2021/12/29 09:58:33;;;;;;;0.30;0.20;;;;;;;11.19;100.00;99575.53;5034285;28;20457;-49
2021/12/29 10:01:04;;;;;;;0.30;0.20;;;;;;;11.18;100.00;99577.31;5031879;28;20462;-50
2021/12/29 10:03:34;;;;;;;0.30;0.20;;;;;;;10.98;100.00;99572.84;5025361;28;20845;-49
2021/12/29 10:06:05;;;;;;;0.30;0.20;;;;;;;11.34;100.00;99568.69;5033978;28;20451;-49
2021/12/29 10:08:35;;;;;;;0.30;0.30;;;;;;;11.47;100.00;99575.19;5034232;28;20909;-53
2021/12/29 10:11:15;;;;;;;0.30;0.20;;;;;;;11.46;100.00;99579.66;5016097;28;20435;-51
2021/12/29 10:13:46;;;;;;;0.30;0.20;;;;;;;11.33;100.00;99574.94;5030028;28;20535;-49
2021/12/29 10:16:16;;;;;;;0.30;0.20;;;;;;;11.17;100.00;99574.72;5033503;28;20937;-51
2021/12/29 10:18:44;;;;;;;0.30;0.20;;;;;;;11.40;100.00;99574.63;5033928;28;20440;-49
2021/12/29 10:21:14;;;;;;;0.30;0.20;;;;;;;11.45;100.00;99555.78;5033854;28;20941;-50
2021/12/29 10:23:47;;;;;;;0.30;0.20;;;;;;;11.67;100.00;99571.66;5014784;28;20461;-52
2021/12/29 10:26:38;;;;;;;0.30;0.20;;;;;;;11.30;100.00;99557.31;5022188;28;20685;-49
2021/12/29 10:29:12;;;;;;;0.30;0.20;;;;;;;11.53;100.00;99570.47;5023221;28;20822;-51
2021/12/29 10:31:46;;;;;;;0.40;0.30;;;;;;;11.38;100.00;99575.63;5026560;28;20467;-55
2021/12/29 10:34:23;;;;;;;0.30;0.20;;;;;;;11.37;100.00;99568.53;5019065;28;20479;-51
2021/12/29 10:37:01;;;;;;;0.30;0.20;;;;;;;11.70;100.00;99566.19;5022335;28;20422;-51
2021/12/29 10:39:34;;;;;;;0.30;0.20;;;;;;;11.84;99.67;99571.81;5023086;28;20459;-53
2021/12/29 10:42:09;;;;;;;0.30;0.20;;;;;;;11.68;100.00;99560.94;5024524;28;20463;-52
2021/12/29 10:44:44;;;;;;;0.30;0.20;;;;;;;11.76;100.00;99557.91;5026349;28;20462;-52
2021/12/29 10:47:23;;;;;;;0.30;0.20;;;;;;;11.61;100.00;99561.28;5026235;28;20501;-51
2021/12/29 10:50:03;;;;;;;0.30;0.20;;;;;;;11.53;100.00;99554.50;5026774;28;20458;-51
2021/12/29 10:52:57;;;;;;;0.30;0.20;;;;;;;11.61;100.00;99562.13;5021141;28;20525;-50
2021/12/29 10:55:31;;;;;;;0.30;0.20;;;;;;;11.93;100.00;99544.75;5018028;28;20452;-53
2021/12/29 10:58:14;;;;;;;0.30;0.20;;;;;;;11.77;100.00;99549.00;5022198;28;20956;-54
2021/12/29 11:00:56;;;;;;;0.30;0.20;;;;;;;11.99;99.63;99540.94;5024184;28;20419;-51
2021/12/29 11:03:24;;;;;;;0.30;0.20;;;;;;;11.99;99.79;99551.59;5026052;28;20476;-51
2021/12/29 11:05:58;;;;;;;0.30;0.20;;;;;;;11.62;100.00;99558.53;5026313;28;20482;-54
2021/12/29 11:08:31;;;;;;;0.30;0.20;;;;;;;11.82;100.00;99565.69;5026421;28;20465;-52
2021/12/29 11:11:06;;;;;;;0.30;0.20;;;;;;;11.62;100.00;99563.88;5026671;28;20434;-50
2021/12/29 11:13:34;;;;;;;0.30;0.20;;;;;;;11.91;100.00;99562.59;5026825;28;20491;-52
2021/12/29 11:16:04;;;;;;;0.30;0.20;;;;;;;11.90;100.00;99555.53;5026656;28;20949;-53
2021/12/29 11:18:49;;;;;;;0.30;0.20;;;;;;;11.68;100.00;99552.97;5020102;28;20502;-52
2021/12/29 11:21:25;;;;;;;0.30;0.20;;;;;;;11.90;100.00;99552.88;5027022;28;20434;-52
2021/12/29 11:23:53;;;;;;;0.30;0.20;;;;;;;11.70;100.00;99540.44;5026815;28;20707;-52
2021/12/29 11:26:31;;;;;;;0.30;0.20;;;;;;;11.78;100.00;99537.41;5023848;28;20438;-53
2021/12/29 11:29:13;;;;;;;0.30;0.20;;;;;;;11.82;100.00;99528.41;5027084;28;20495;-52
2021/12/29 11:31:49;;;;;;;0.30;0.20;;;;;;;12.02;100.00;99538.13;5022959;28;20534;-52
2021/12/29 11:34:27;;;;;;;0.30;0.20;;;;;;;12.06;100.00;99545.03;5017164;28;20455;-53
2021/12/29 11:37:07;;;;;;;0.30;0.20;;;;;;;12.14;100.00;99554.41;5013533;28;20544;-52
2021/12/29 11:39:37;;;;;;;0.30;0.20;;;;;;;12.07;100.00;99555.63;5011036;28;20438;-53
2021/12/29 11:42:04;;;;;;;0.30;0.20;;;;;;;12.09;100.00;99556.44;5021017;28;20511;-53